KMIA Airport Information

Runway Information
Runway 08L Length 8600 ft width 150 ft
Elevation 8 ft Threshold 0 ft Heading 87
Runway 26R Length 8600 ft Width 150 ft
Elevation 8 ft Threshold 0 ft Heading 267
Runway 08R Length 10506 ft width 200 ft
Elevation 8 ft Threshold 0 ft Heading 87
Runway 26L Length 10506 ft Width 200 ft
Elevation 8 ft Threshold 0 ft Heading 267
Runway 09 Length 13000 ft width 150 ft
Elevation 7 ft Threshold 1350 ft Heading 87
Runway 27 Length 13000 ft Width 150 ft
Elevation 8 ft Threshold 1270 ft Heading 267
Runway 12 Length 9354 ft width 150 ft
Elevation 8 ft Threshold 0 ft Heading 119
Runway 30 Length 9354 ft Width 150 ft
Elevation 8 ft Threshold 939 ft Heading 299
Airport Frequencies
Type APP Name APP Frequency 120.5 MHZ
Type ATIS Name ATIS Frequency 119.15 MHZ
Type CLD Name CLNC DEL Frequency 120.35 MHZ
Type DEP Name DEP Frequency 119.45 MHZ
Type GND Name GND Frequency 121.8 MHZ
Type TWR Name TWR Frequency 118.3 MHZ
Type UNIC Name UNICOM Frequency 123 MHZ
Airport Navaids
Type VORTAC Name Dolphin Frequency 113900 KHZ
Type NDB Name Keyes Frequency 248 KHZ
Airport Weather Information & NOTAM
ADDS - METARS form results

(2313 UTC 26 May 2018)
 
METAR text: KMIA 262253Z 10011KT 6SM -RA BR SCT018 BKN075 BKN100 OVC140 24/23 A2985 RMK AO2 SLP108 P0001 T02390233 $
Conditions at: KMIA (MIAMI , FL, US) observed 2253 UTC 26 May 2018
Temperature: 23.9°C (75°F)
Dewpoint: 23.3°C (74°F) [RH = 96%]
Pressure (altimeter): 29.85 inches Hg (1010.9 mb)
[Sea-level pressure: 1010.8 mb]
Winds: from the E (100 degrees) at 13 MPH (11 knots; 5.7 m/s)
Visibility: 6 miles (10 km)
Ceiling: 7500 feet AGL
Clouds: scattered clouds at 1800 feet AGL
broken clouds at 7500 feet AGL
broken clouds at 10000 feet AGL
overcast cloud deck at 14000 feet AGL
Weather: -RA BR  (light rain, mist)
SOME DATA ABOVE MAY BE INACCURATE!!!
"$" is an indication the sensor requires maintenance

METAR text: KMIA 262242Z 10013KT 6SM -RA BR SCT018 BKN055 OVC100 24/23 A2985 RMK AO2 P0001 T02390228 $
Conditions at: KMIA (MIAMI , FL, US) observed 2242 UTC 26 May 2018
Temperature: 23.9°C (75°F)
Dewpoint: 22.8°C (73°F) [RH = 94%]
Pressure (altimeter): 29.85 inches Hg (1010.9 mb)
Winds: from the E (100 degrees) at 15 MPH (13 knots; 6.8 m/s)
Visibility: 6 miles (10 km)
Ceiling: 5500 feet AGL
Clouds: scattered clouds at 1800 feet AGL
broken clouds at 5500 feet AGL
overcast cloud deck at 10000 feet AGL
Weather: -RA BR  (light rain, mist)
SOME DATA ABOVE MAY BE INACCURATE!!!
"$" is an indication the sensor requires maintenance